Time;durP1;ratioP1;P1;durP2;ratioP2;P2;SDS_P1;SDS_P2;PMS_P1;PMS_P2;Temp;Humidity;BMP_temperature;BMP_pressure;BME280_temperature;BME280_humidity;BME280_pressure;Samples;Min_cycle;Max_cycle;Signal;HPM_P1;HPM_P2
2022/03/23 00:02:43;;;;;;;7.90;6.07;;;4.70;99.90;;;;;;5061741;28;20456;-82
2022/03/23 00:05:28;;;;;;;8.03;6.43;;;4.70;99.90;;;;;;5061715;28;20536;-81
2022/03/23 00:08:12;;;;;;;7.60;6.17;;;4.70;99.90;;;;;;5060809;28;20440;-81
2022/03/23 00:10:57;;;;;;;7.07;6.40;;;4.50;99.90;;;;;;5062505;28;20541;-81
2022/03/23 00:13:41;;;;;;;8.43;6.90;;;4.50;99.90;;;;;;5063972;28;20444;-81
2022/03/23 00:16:26;;;;;;;14.23;7.37;;;4.50;99.90;;;;;;5063822;28;20500;-81
2022/03/23 00:19:11;;;;;;;7.20;5.20;;;4.70;99.90;;;;;;5062841;28;20386;-81
2022/03/23 00:21:55;;;;;;;13.33;5.90;;;4.70;99.90;;;;;;5062781;28;20413;-81
2022/03/23 00:24:40;;;;;;;6.57;5.13;;;4.40;99.90;;;;;;5062845;28;20407;-81
2022/03/23 00:27:24;;;;;;;10.33;5.60;;;4.40;99.90;;;;;;5062774;28;20402;-81
2022/03/23 00:30:10;;;;;;;12.63;5.67;;;4.30;99.90;;;;;;5062488;28;20467;-82
2022/03/23 00:32:54;;;;;;;7.73;5.43;;;4.20;99.90;;;;;;5062297;28;20456;-81
2022/03/23 00:35:39;;;;;;;7.03;5.50;;;4.30;99.90;;;;;;5062953;28;20469;-81
2022/03/23 00:38:24;;;;;;;8.77;5.47;;;4.20;99.90;;;;;;5061748;28;20398;-81
2022/03/23 00:41:08;;;;;;;5.33;4.83;;;4.20;99.90;;;;;;5060770;28;20405;-81
2022/03/23 00:43:53;;;;;;;10.27;6.23;;;4.30;99.90;;;;;;5060611;28;20433;-81
2022/03/23 00:46:37;;;;;;;7.07;4.53;;;4.30;99.90;;;;;;5059734;28;20462;-81
2022/03/23 00:49:23;;;;;;;9.07;5.83;;;4.20;99.90;;;;;;5059487;28;20394;-81
2022/03/23 00:52:08;;;;;;;7.30;5.63;;;4.00;99.90;;;;;;5058891;28;20382;-81
2022/03/23 00:54:52;;;;;;;6.17;5.57;;;3.90;99.90;;;;;;5059338;28;20599;-81
2022/03/23 00:57:38;;;;;;;7.50;5.80;;;4.00;99.90;;;;;;5059549;28;20390;-81
2022/03/23 01:00:22;;;;;;;9.50;6.73;;;4.00;99.90;;;;;;5045131;28;20390;-82
2022/03/23 01:03:09;;;;;;;11.13;5.20;;;4.00;99.90;;;;;;5058091;28;20418;-81
2022/03/23 01:05:54;;;;;;;10.03;7.00;;;3.90;99.90;;;;;;5059220;28;20462;-81
2022/03/23 01:08:38;;;;;;;9.67;5.30;;;3.70;99.90;;;;;;5058439;28;20429;-81
2022/03/23 01:11:23;;;;;;;9.10;7.73;;;3.70;99.90;;;;;;5059000;28;20719;-82
2022/03/23 01:14:08;;;;;;;10.33;5.30;;;3.70;99.90;;;;;;5059254;28;20382;-81
2022/03/23 01:16:52;;;;;;;12.70;6.03;;;3.90;99.90;;;;;;5059349;28;20516;-82
2022/03/23 01:19:37;;;;;;;5.20;4.80;;;3.70;99.90;;;;;;5058876;28;20729;-81
2022/03/23 01:22:22;;;;;;;7.97;5.40;;;3.70;99.90;;;;;;5061190;28;20429;-81
2022/03/23 01:25:08;;;;;;;9.40;5.77;;;3.60;99.90;;;;;;5075811;28;20417;-80
2022/03/23 01:27:52;;;;;;;11.50;7.80;;;3.70;99.90;;;;;;5078902;28;20453;-80
2022/03/23 01:30:37;;;;;;;10.83;6.10;;;3.60;99.90;;;;;;5078455;28;20409;-79
2022/03/23 01:33:22;;;;;;;13.00;7.33;;;3.50;99.90;;;;;;5078431;28;20405;-80
2022/03/23 01:36:07;;;;;;;10.47;5.90;;;3.40;99.90;;;;;;5059438;28;20508;-81
2022/03/23 01:38:51;;;;;;;9.30;6.57;;;3.50;99.90;;;;;;5059335;28;20406;-81
2022/03/23 01:41:39;;;;;;;6.23;4.40;;;3.50;99.90;;;;;;5059249;28;20386;-81
2022/03/23 01:44:24;;;;;;;10.80;8.40;;;3.60;99.90;;;;;;5058957;28;20385;-81
2022/03/23 01:47:13;;;;;;;9.13;5.90;;;3.90;99.90;;;;;;5057667;28;20944;-81
2022/03/23 01:49:57;;;;;;;12.30;8.37;;;4.50;99.90;;;;;;5058838;28;20410;-81
2022/03/23 01:52:42;;;;;;;8.13;6.60;;;4.90;99.90;;;;;;5058277;28;20790;-81
2022/03/23 01:55:27;;;;;;;15.10;9.10;;;5.20;99.90;;;;;;5057175;28;20481;-81
2022/03/23 01:58:13;;;;;;;11.67;7.93;;;5.50;99.90;;;;;;5058942;28;20433;-80
2022/03/23 02:00:58;;;;;;;13.00;8.20;;;5.70;99.90;;;;;;5057915;28;20428;-81
2022/03/23 02:03:42;;;;;;;12.03;8.07;;;5.80;99.90;;;;;;5057884;28;20383;-81
2022/03/23 02:06:27;;;;;;;10.50;8.07;;;5.90;99.90;;;;;;5058088;28;20985;-81
2022/03/23 02:09:11;;;;;;;10.20;7.90;;;6.00;99.90;;;;;;5057054;28;20443;-81
2022/03/23 02:11:57;;;;;;;12.10;8.67;;;5.90;99.90;;;;;;5058536;28;20393;-81
2022/03/23 02:14:41;;;;;;;18.90;8.80;;;5.80;99.90;;;;;;5058837;28;20782;-81
2022/03/23 02:17:26;;;;;;;19.23;8.00;;;5.70;99.90;;;;;;5057508;28;20429;-81
2022/03/23 02:20:12;;;;;;;17.50;8.93;;;5.00;99.90;;;;;;5058558;28;20531;-80
2022/03/23 02:22:57;;;;;;;7.53;6.03;;;5.20;99.90;;;;;;5057276;28;20413;-81
2022/03/23 02:25:45;;;;;;;15.60;8.57;;;5.50;99.90;;;;;;5058886;28;20384;-81
2022/03/23 02:28:31;;;;;;;13.70;9.13;;;5.70;99.90;;;;;;5058462;28;20443;-81
2022/03/23 02:31:15;;;;;;;11.67;7.43;;;5.70;99.90;;;;;;5059393;28;20497;-81
2022/03/23 02:34:01;;;;;;;10.70;7.80;;;5.80;99.90;;;;;;5073104;28;20429;-81
2022/03/23 02:36:45;;;;;;;12.03;9.27;;;5.80;99.90;;;;;;5067917;28;20440;-81
2022/03/23 02:39:29;;;;;;;10.30;6.53;;;5.80;99.90;;;;;;5058075;28;20385;-81
2022/03/23 02:42:15;;;;;;;8.20;6.37;;;5.80;99.90;;;;;;5057697;28;20386;-81
2022/03/23 02:45:00;;;;;;;11.70;8.10;;;5.80;99.90;;;;;;5057581;28;20386;-82
2022/03/23 02:47:44;;;;;;;9.17;7.03;;;5.60;99.90;;;;;;5057746;28;20406;-80
2022/03/23 02:50:29;;;;;;;15.77;9.27;;;5.70;99.90;;;;;;5058069;28;20394;-83
2022/03/23 03:02:35;;;;;;;8.60;5.70;;;5.40;99.90;;;;;;5057962;28;20441;-81
2022/03/23 03:05:19;;;;;;;13.47;7.37;;;4.40;99.90;;;;;;5060609;28;20480;-82
2022/03/23 03:10:58;;;;;;;12.17;6.53;;;3.80;99.90;;;;;;5060481;28;20409;-81
2022/03/23 03:13:48;;;;;;;9.27;6.53;;;3.80;99.90;;;;;;5061814;28;20405;-81
2022/03/23 03:16:32;;;;;;;15.70;7.70;;;3.00;99.90;;;;;;5060559;28;20519;-81
2022/03/23 03:19:17;;;;;;;6.30;4.40;;;2.90;99.90;;;;;;5061707;28;20394;-81
2022/03/23 03:22:02;;;;;;;9.63;6.27;;;2.70;99.90;;;;;;5062057;28;20390;-81
2022/03/23 03:24:47;;;;;;;9.10;6.07;;;2.60;99.90;;;;;;5061740;28;20394;-81
2022/03/23 03:27:35;;;;;;;7.43;5.97;;;2.40;99.90;;;;;;5060472;28;20990;-81
2022/03/23 03:30:20;;;;;;;8.73;6.40;;;2.70;99.90;;;;;;5061261;28;20386;-81
2022/03/23 03:33:04;;;;;;;11.43;7.83;;;2.60;99.90;;;;;;5061092;28;20390;-80
2022/03/23 03:35:49;;;;;;;7.00;6.10;;;2.70;99.90;;;;;;5060923;28;20544;-81
2022/03/23 03:38:37;;;;;;;7.50;6.40;;;2.70;99.90;;;;;;5061433;28;20790;-80
2022/03/23 03:41:22;;;;;;;12.40;6.43;;;2.70;99.90;;;;;;5060986;28;20425;-82
2022/03/23 03:44:07;;;;;;;10.47;6.10;;;3.00;99.90;;;;;;5061577;28;20385;-81
2022/03/23 03:46:52;;;;;;;11.83;7.60;;;3.50;99.90;;;;;;5060424;28;20449;-82
2022/03/23 03:49:36;;;;;;;8.87;6.97;;;3.90;99.90;;;;;;5060542;28;20382;-81
2022/03/23 03:52:20;;;;;;;11.77;6.93;;;4.20;99.90;;;;;;5045632;28;20398;-82
2022/03/23 03:55:06;;;;;;;15.33;7.80;;;4.40;99.90;;;;;;5061182;28;20460;-81
2022/03/23 03:57:50;;;;;;;12.23;7.47;;;4.50;99.90;;;;;;5061409;28;20378;-81
2022/03/23 04:00:36;;;;;;;15.00;7.80;;;4.70;99.90;;;;;;5061165;28;20378;-81
2022/03/23 04:03:20;;;;;;;9.97;6.20;;;4.60;99.90;;;;;;5060740;28;20378;-81
2022/03/23 04:06:06;;;;;;;11.40;7.40;;;4.20;99.90;;;;;;5060691;28;20449;-83
2022/03/23 04:08:51;;;;;;;10.50;6.37;;;3.40;99.90;;;;;;5060593;28;20447;-80
2022/03/23 04:11:38;;;;;;;14.90;8.20;;;2.90;99.90;;;;;;5060724;28;20439;-81
2022/03/23 04:14:22;;;;;;;10.33;7.17;;;2.80;99.90;;;;;;5060912;28;20394;-80
2022/03/23 04:17:07;;;;;;;7.60;6.00;;;2.90;99.90;;;;;;5065792;28;20507;-80
2022/03/23 04:19:52;;;;;;;7.17;5.23;;;3.00;99.90;;;;;;5079607;28;20447;-80
2022/03/23 04:22:38;;;;;;;14.77;7.93;;;2.80;99.90;;;;;;5077769;28;20428;-80
2022/03/23 04:25:23;;;;;;;8.93;6.13;;;3.00;99.90;;;;;;5077463;28;20466;-81
2022/03/23 04:28:07;;;;;;;10.80;7.20;;;3.00;99.90;;;;;;5070756;28;20378;-82
2022/03/23 04:30:52;;;;;;;9.40;6.17;;;2.70;99.90;;;;;;5060092;28;20382;-82
2022/03/23 04:33:36;;;;;;;5.87;4.80;;;2.40;99.90;;;;;;5061315;28;20793;-81
2022/03/23 04:36:21;;;;;;;15.40;6.37;;;2.10;99.90;;;;;;5065700;28;20977;-82
2022/03/23 04:39:06;;;;;;;8.83;6.27;;;1.80;99.90;;;;;;5059551;28;20382;-81
2022/03/23 04:41:50;;;;;;;12.47;8.30;;;1.70;99.90;;;;;;5058673;28;20726;-81
2022/03/23 04:44:35;;;;;;;10.60;6.97;;;1.80;99.90;;;;;;5059322;28;20917;-81
2022/03/23 04:47:19;;;;;;;5.53;4.80;;;1.60;99.90;;;;;;5056750;28;20457;-81
2022/03/23 04:50:08;;;;;;;5.63;5.13;;;1.50;99.90;;;;;;5060203;28;20390;-81
2022/03/23 04:52:53;;;;;;;9.20;5.73;;;1.40;99.90;;;;;;5059411;28;20578;-82
2022/03/23 04:55:38;;;;;;;6.87;4.90;;;1.50;99.90;;;;;;5060058;28;20802;-82
2022/03/23 04:58:25;;;;;;;11.03;5.47;;;1.40;99.90;;;;;;5059147;28;20440;-82
2022/03/23 05:01:09;;;;;;;5.17;4.70;;;1.40;99.90;;;;;;5044590;28;20382;-82
2022/03/23 05:03:53;;;;;;;8.03;5.90;;;1.40;99.90;;;;;;5059718;28;20402;-81
2022/03/23 05:06:38;;;;;;;10.77;5.70;;;1.50;99.90;;;;;;5056866;28;20476;-82
2022/03/23 05:09:22;;;;;;;7.20;6.40;;;1.60;99.90;;;;;;5058687;28;20441;-81
2022/03/23 05:12:07;;;;;;;11.80;7.00;;;1.60;99.90;;;;;;5058902;28;20433;-82
2022/03/23 05:14:52;;;;;;;7.00;6.10;;;1.50;99.90;;;;;;5058577;28;20394;-81
2022/03/23 05:17:37;;;;;;;7.07;6.13;;;1.60;99.90;;;;;;5058784;28;20738;-82
2022/03/23 05:20:23;;;;;;;10.33;7.50;;;1.60;99.90;;;;;;5058769;28;20408;-82
2022/03/23 05:23:07;;;;;;;10.97;5.77;;;1.90;99.90;;;;;;5058026;28;20429;-82
2022/03/23 05:25:52;;;;;;;7.40;6.70;;;2.10;99.90;;;;;;5058012;28;20417;-79
2022/03/23 05:28:37;;;;;;;10.23;6.50;;;2.60;99.90;;;;;;5058402;28;20453;-83
2022/03/23 05:31:21;;;;;;;18.00;7.80;;;3.00;99.90;;;;;;5058604;28;20414;-79
2022/03/23 05:34:06;;;;;;;14.30;8.27;;;3.30;99.90;;;;;;5058516;28;20429;-81
2022/03/23 05:36:50;;;;;;;10.10;7.93;;;3.50;99.90;;;;;;5058614;28;20941;-80
2022/03/23 05:39:35;;;;;;;10.77;7.77;;;3.40;99.90;;;;;;5072965;28;20429;-81
2022/03/23 05:42:20;;;;;;;5.43;4.93;;;2.30;99.90;;;;;;5069041;28;20417;-81
2022/03/23 05:45:05;;;;;;;5.97;5.40;;;1.70;99.90;;;;;;5058216;28;20381;-81
2022/03/23 05:47:52;;;;;;;7.47;6.77;;;1.50;99.90;;;;;;5076232;28;20447;-81
2022/03/23 05:50:37;;;;;;;6.27;5.27;;;1.40;99.90;;;;;;5075451;28;20389;-81
2022/03/23 05:53:21;;;;;;;8.87;7.10;;;1.20;99.90;;;;;;5075811;28;20420;-81
2022/03/23 05:56:08;;;;;;;6.23;4.97;;;1.30;99.90;;;;;;5075028;28;21002;-81
2022/03/23 05:58:54;;;;;;;7.20;6.53;;;1.50;99.90;;;;;;5061623;28;20436;-81
2022/03/23 06:01:39;;;;;;;12.30;8.60;;;1.50;99.90;;;;;;5061451;28;20397;-81
2022/03/23 06:04:23;;;;;;;8.13;6.30;;;1.60;99.90;;;;;;5061752;28;20381;-80
2022/03/23 06:07:08;;;;;;;6.03;5.03;;;1.70;99.90;;;;;;5074663;28;20487;-81
2022/03/23 06:09:52;;;;;;;7.50;6.20;;;1.80;99.90;;;;;;5046418;28;20415;-81
2022/03/23 06:12:37;;;;;;;7.40;6.67;;;1.80;99.90;;;;;;5061308;28;20504;-81
2022/03/23 06:15:22;;;;;;;5.33;4.73;;;1.80;99.90;;;;;;5075525;28;20521;-81
2022/03/23 06:18:07;;;;;;;7.23;5.80;;;1.40;99.90;;;;;;5063350;28;20402;-82
2022/03/23 06:20:51;;;;;;;9.73;7.20;;;1.70;99.90;;;;;;5037314;28;20441;-82
2022/03/23 06:23:36;;;;;;;5.93;5.20;;;1.60;99.90;;;;;;5048221;28;20409;-81
2022/03/23 06:26:21;;;;;;;7.90;7.10;;;1.80;99.90;;;;;;5057870;28;20426;-81
2022/03/23 06:29:05;;;;;;;7.53;6.63;;;2.00;99.90;;;;;;5057725;28;20389;-81
2022/03/23 06:31:51;;;;;;;11.97;7.30;;;2.10;99.90;;;;;;5055684;28;20418;-82
2022/03/23 06:34:35;;;;;;;7.53;6.77;;;2.40;99.90;;;;;;5054358;28;20398;-81
2022/03/23 06:37:20;;;;;;;9.90;7.07;;;2.40;99.90;;;;;;5057740;28;20413;-81
2022/03/23 06:40:06;;;;;;;8.20;6.10;;;2.60;99.90;;;;;;5059863;28;20476;-82
2022/03/23 06:42:52;;;;;;;7.93;6.40;;;2.60;99.90;;;;;;5061488;28;20481;-82
2022/03/23 06:45:40;;;;;;;7.53;6.83;;;2.60;99.90;;;;;;5060445;28;20451;-81
2022/03/23 06:48:24;;;;;;;12.53;6.70;;;2.60;99.90;;;;;;5043728;28;20821;-81
2022/03/23 06:51:09;;;;;;;15.87;7.73;;;2.90;99.90;;;;;;5042896;28;20419;-81
2022/03/23 06:53:53;;;;;;;7.07;6.37;;;2.90;99.90;;;;;;5057146;28;20503;-82
2022/03/23 06:56:37;;;;;;;10.60;8.63;;;2.70;99.90;;;;;;5055208;28;20469;-81
2022/03/23 06:59:22;;;;;;;12.67;7.27;;;2.70;99.90;;;;;;5052872;28;20921;-81
2022/03/23 07:02:08;;;;;;;11.47;7.57;;;2.80;99.90;;;;;;5056548;28;20472;-81
2022/03/23 07:04:52;;;;;;;6.30;5.80;;;2.90;99.90;;;;;;5050295;28;20838;-81
2022/03/23 07:07:38;;;;;;;15.83;8.20;;;2.90;99.90;;;;;;5057690;28;20448;-81
2022/03/23 07:10:22;;;;;;;14.90;8.27;;;3.20;99.90;;;;;;5049712;28;20488;-81
2022/03/23 07:13:07;;;;;;;13.50;7.40;;;3.30;99.90;;;;;;5056870;28;20444;-81
2022/03/23 07:15:52;;;;;;;10.33;7.87;;;3.70;99.90;;;;;;5058419;28;20464;-81
2022/03/23 07:18:36;;;;;;;12.83;9.40;;;4.00;99.90;;;;;;5058722;28;20510;-81
2022/03/23 07:21:21;;;;;;;13.20;9.90;;;4.40;99.90;;;;;;5047371;28;20523;-82
2022/03/23 07:24:07;;;;;;;14.20;8.57;;;4.60;99.90;;;;;;5056877;28;20440;-82
2022/03/23 07:26:52;;;;;;;16.27;9.23;;;5.00;99.90;;;;;;5054315;28;20430;-82
2022/03/23 07:29:36;;;;;;;14.17;9.60;;;5.30;99.90;;;;;;5048184;28;20495;-82
2022/03/23 07:32:22;;;;;;;14.40;8.40;;;5.50;99.90;;;;;;5046720;28;21190;-82
2022/03/23 07:35:08;;;;;;;12.17;7.63;;;5.50;99.90;;;;;;5062247;28;20607;-82
2022/03/23 07:37:53;;;;;;;13.40;9.60;;;5.60;99.90;;;;;;5066615;28;20545;-82
2022/03/23 07:40:37;;;;;;;14.43;9.50;;;5.60;99.90;;;;;;5078397;28;20396;-81
2022/03/23 07:43:22;;;;;;;10.80;9.70;;;5.50;99.90;;;;;;5074291;28;20524;-81
2022/03/23 07:46:07;;;;;;;12.33;8.97;;;5.40;99.90;;;;;;5066826;28;20520;-81
2022/03/23 07:48:52;;;;;;;12.27;9.23;;;5.40;99.90;;;;;;5071447;28;20463;-81
2022/03/23 07:51:37;;;;;;;9.37;8.17;;;5.20;99.90;;;;;;5067884;28;20455;-81
2022/03/23 07:54:22;;;;;;;11.80;9.53;;;5.70;99.90;;;;;;5073350;28;20499;-82
2022/03/23 07:57:06;;;;;;;14.63;9.50;;;6.10;99.90;;;;;;5054703;28;20445;-82
2022/03/23 07:59:51;;;;;;;16.20;9.60;;;6.30;99.90;;;;;;5068830;28;20577;-80
2022/03/23 08:02:55;;;;;;;17.63;9.50;;;6.40;99.90;;;;;;5068546;28;20502;-82
2022/03/23 08:05:42;;;;;;;16.33;9.97;;;6.50;99.90;;;;;;5064778;28;20538;-82
2022/03/23 08:08:27;;;;;;;12.20;9.50;;;6.50;99.90;;;;;;5074379;28;20992;-82
2022/03/23 08:11:11;;;;;;;10.77;9.00;;;6.90;99.90;;;;;;5064130;28;20535;-82
2022/03/23 08:13:56;;;;;;;15.30;9.67;;;6.90;99.90;;;;;;5065992;28;21007;-82
2022/03/23 08:16:40;;;;;;;18.30;11.37;;;6.80;99.90;;;;;;5071131;28;20457;-82
2022/03/23 08:19:24;;;;;;;18.13;10.70;;;6.80;99.90;;;;;;5082980;28;20632;-80
2022/03/23 08:22:09;;;;;;;15.67;10.97;;;7.10;99.90;;;;;;5064241;28;20473;-82
2022/03/23 08:24:53;;;;;;;20.80;10.03;;;7.30;99.90;;;;;;5076278;28;20476;-80
2022/03/23 08:27:38;;;;;;;15.17;11.00;;;7.60;99.90;;;;;;5101736;28;20412;-79
2022/03/23 08:30:22;;;;;;;13.80;11.10;;;7.70;99.90;;;;;;5109300;28;20455;-80
2022/03/23 08:33:08;;;;;;;15.27;11.43;;;7.70;99.90;;;;;;5097756;28;20467;-82
2022/03/23 08:35:53;;;;;;;17.17;10.87;;;7.50;99.90;;;;;;5081176;28;20485;-81
2022/03/23 08:38:38;;;;;;;15.53;9.97;;;7.90;99.90;;;;;;5084380;28;20441;-80
2022/03/23 08:41:22;;;;;;;20.93;12.60;;;7.90;99.90;;;;;;5115224;28;20438;-80
2022/03/23 08:44:07;;;;;;;14.93;10.93;;;8.10;99.90;;;;;;5102854;28;20415;-81
2022/03/23 08:46:51;;;;;;;17.83;12.57;;;8.40;99.90;;;;;;5074811;28;20431;-82
2022/03/23 08:49:36;;;;;;;13.30;10.63;;;8.80;99.90;;;;;;5072061;28;20460;-81
2022/03/23 08:52:20;;;;;;;15.57;12.37;;;9.20;99.90;;;;;;5059042;28;20452;-81
2022/03/23 08:55:07;;;;;;;22.77;12.63;;;9.30;99.90;;;;;;5099116;28;20477;-80
2022/03/23 08:57:53;;;;;;;18.13;11.47;;;9.10;99.90;;;;;;5078561;28;20484;-81
2022/03/23 09:00:40;;;;;;;15.93;12.10;;;9.30;99.90;;;;;;5074014;28;20495;-82
2022/03/23 09:03:26;;;;;;;14.37;10.97;;;9.60;99.90;;;;;;5069085;28;20488;-82
2022/03/23 09:06:11;;;;;;;19.50;12.00;;;10.10;99.90;;;;;;5071769;28;20534;-82
2022/03/23 09:08:56;;;;;;;21.93;12.30;;;10.50;99.90;;;;;;5074864;28;20444;-82
2022/03/23 09:11:43;;;;;;;13.33;9.80;;;10.70;99.90;;;;;;5069675;28;20828;-81
2022/03/23 09:14:27;;;;;;;15.70;12.40;;;10.90;99.90;;;;;;5063267;28;20444;-81
2022/03/23 09:17:12;;;;;;;28.37;12.87;;;11.30;99.90;;;;;;5060037;28;20454;-82
2022/03/23 09:19:57;;;;;;;18.60;13.70;;;11.60;99.90;;;;;;5104100;28;20536;-80
2022/03/23 09:23:01;;;;;;;17.33;12.43;;;11.80;99.90;;;;;;5099714;28;20479;-82
2022/03/23 09:25:46;;;;;;;19.90;11.73;;;12.10;99.60;;;;;;5079073;28;20535;-80
2022/03/23 09:28:30;;;;;;;19.77;12.80;;;12.50;99.90;;;;;;5079524;28;20433;-80
2022/03/23 09:31:15;;;;;;;17.50;12.50;;;12.70;98.30;;;;;;5042224;28;20437;-81
2022/03/23 09:34:02;;;;;;;26.47;16.00;;;13.10;99.90;;;;;;5042641;28;20790;-81
2022/03/23 09:39:51;;;;;;;23.47;11.53;;;13.80;94.30;;;;;;5043632;28;20458;-81
2022/03/23 09:42:39;;;;;;;24.77;15.00;;;14.60;90.40;;;;;;5045584;28;20519;-82
2022/03/23 09:45:45;;;;;;;21.47;15.97;;;14.40;93.20;;;;;;5032963;28;20449;-81
2022/03/23 09:48:33;;;;;;;29.97;17.87;;;14.50;89.70;;;;;;5027775;28;20513;-81
2022/03/23 09:51:19;;;;;;;21.97;14.50;;;15.10;85.00;;;;;;5024906;28;20458;-81
2022/03/23 09:54:08;;;;;;;16.70;13.03;;;15.10;84.80;;;;;;5027048;28;20435;-81
2022/03/23 09:56:53;;;;;;;15.93;12.17;;;15.40;84.10;;;;;;5017238;28;20477;-81
2022/03/23 09:59:37;;;;;;;17.80;12.73;;;15.50;85.90;;;;;;5043988;28;20473;-80
2022/03/23 10:03:00;;;;;;;24.97;14.60;;;16.30;81.80;;;;;;5070128;28;20973;-81
2022/03/23 10:06:17;;;;;;;18.10;14.53;;;16.70;74.00;;;;;;5070124;28;20468;-81
2022/03/23 10:09:21;;;;;;;13.87;11.30;;;15.20;72.20;;;;;;5087291;28;20999;-81
2022/03/23 10:12:38;;;;;;;14.00;12.37;;;15.60;71.60;;;;;;5084598;28;20484;-82
2022/03/23 10:15:59;;;;;;;17.23;11.53;;;16.60;72.70;;;;;;5070350;28;20534;-81
2022/03/23 10:18:59;;;;;;;20.20;12.77;;;17.60;71.00;;;;;;5088351;28;20502;-80
2022/03/23 10:21:45;;;;;;;19.13;13.77;;;18.00;65.50;;;;;;5082118;28;20597;-81
2022/03/23 10:24:31;;;;;;;18.97;13.47;;;18.70;62.40;;;;;;5083623;28;20467;-81
2022/03/23 10:27:17;;;;;;;10.97;9.50;;;18.80;59.30;;;;;;5083225;28;20525;-79
2022/03/23 10:30:03;;;;;;;9.87;8.87;;;18.90;54.70;;;;;;5084210;28;21111;-81
2022/03/23 10:32:47;;;;;;;12.40;9.30;;;19.00;54.20;;;;;;5071381;28;20476;-81
2022/03/23 10:35:40;;;;;;;14.87;10.53;;;19.40;55.40;;;;;;5062249;28;20547;-81
2022/03/23 10:38:25;;;;;;;10.97;9.10;;;19.50;51.90;;;;;;5082520;28;20463;-82
2022/03/23 10:41:11;;;;;;;18.07;9.60;;;19.60;49.90;;;;;;5083995;28;20772;-82
2022/03/23 10:43:57;;;;;;;17.33;12.90;;;19.00;49.20;;;;;;5075638;28;20435;-82
2022/03/23 10:46:41;;;;;;;9.77;8.70;;;18.80;49.60;;;;;;5075535;28;20779;-81
2022/03/23 10:49:41;;;;;;;10.20;9.17;;;18.90;49.70;;;;;;5060184;28;20519;-82
2022/03/23 10:52:28;;;;;;;13.97;10.50;;;19.80;50.70;;;;;;5070081;28;20494;-81
2022/03/23 10:55:13;;;;;;;15.07;11.53;;;18.70;50.70;;;;;;5101605;28;20470;-80
2022/03/23 10:58:20;;;;;;;11.13;9.23;;;18.20;48.30;;;;;;5086804;28;20467;-78
2022/03/23 11:01:06;;;;;;;11.13;9.90;;;18.10;48.50;;;;;;5063642;28;20473;-82
2022/03/23 11:03:51;;;;;;;11.20;9.47;;;18.30;48.60;;;;;;5086706;28;20447;-80
2022/03/23 11:06:42;;;;;;;11.17;10.03;;;18.10;47.60;;;;;;5084427;28;20472;-82
2022/03/23 11:15:52;;;;;;;12.40;9.57;;;21.70;46.90;;;;;;5064291;28;20496;-82
2022/03/23 11:18:37;;;;;;;12.47;9.93;;;19.00;44.90;;;;;;5066955;28;20931;-81
2022/03/23 11:21:22;;;;;;;10.47;9.33;;;20.70;45.20;;;;;;5069511;28;20479;-80
2022/03/23 11:24:07;;;;;;;22.27;20.43;;;21.40;47.00;;;;;;5073292;28;20500;-80
2022/03/23 11:26:52;;;;;;;12.10;10.60;;;22.00;44.70;;;;;;5105506;28;20451;-81
2022/03/23 11:29:39;;;;;;;14.70;10.97;;;22.50;45.00;;;;;;5102909;28;20440;-81
2022/03/23 11:32:28;;;;;;;12.80;11.50;;;23.20;43.90;;;;;;5104427;28;20463;-81
2022/03/23 11:35:14;;;;;;;11.33;9.93;;;23.60;42.40;;;;;;5061303;28;20467;-81
2022/03/23 11:37:59;;;;;;;12.83;11.13;;;23.40;41.80;;;;;;5090052;28;21013;-80
2022/03/23 11:40:45;;;;;;;14.57;11.20;;;22.60;42.60;;;;;;5085743;28;20426;-81
2022/03/23 11:43:30;;;;;;;15.10;10.20;;;22.00;42.20;;;;;;5106703;28;20523;-79
2022/03/23 11:46:21;;;;;;;12.97;10.60;;;22.10;42.50;;;;;;5107672;28;20502;-80
2022/03/23 11:49:22;;;;;;;15.07;10.37;;;22.00;41.10;;;;;;5094975;28;20431;-80
2022/03/23 11:52:31;;;;;;;12.53;11.37;;;19.70;41.00;;;;;;5101913;28;20583;-81
2022/03/23 11:58:37;;;;;;;10.03;9.03;;;19.50;42.60;;;;;;5105171;28;20412;-81
2022/03/23 12:01:31;;;;;;;10.73;9.50;;;21.70;42.20;;;;;;5066439;28;20542;-80
2022/03/23 12:04:19;;;;;;;10.63;9.53;;;22.40;40.90;;;;;;5066676;28;20445;-80
2022/03/23 12:07:09;;;;;;;10.87;9.57;;;22.90;40.30;;;;;;5071054;28;20460;-80
2022/03/23 12:10:20;;;;;;;9.83;8.60;;;22.40;38.80;;;;;;5059338;28;20444;-79
2022/03/23 12:13:19;;;;;;;10.20;8.73;;;24.00;40.10;;;;;;5071131;28;20512;-80
2022/03/23 12:16:10;;;;;;;11.73;10.63;;;23.30;37.00;;;;;;5065467;28;20459;-78
2022/03/23 12:19:03;;;;;;;10.87;9.87;;;24.40;39.00;;;;;;5031457;28;20900;-78
2022/03/23 12:22:16;;;;;;;10.80;8.93;;;25.20;36.60;;;;;;5057679;28;20501;-81
2022/03/23 12:25:09;;;;;;;10.00;9.10;;;24.40;38.10;;;;;;5039646;28;20490;-83
2022/03/23 12:28:24;;;;;;;10.00;9.30;;;25.60;37.40;;;;;;5062403;28;20518;-83
2022/03/23 12:31:14;;;;;;;14.00;9.40;;;26.00;37.30;;;;;;5054337;28;20453;-82
2022/03/23 12:34:06;;;;;;;10.97;9.63;;;27.30;34.60;;;;;;5084168;28;20184;-84
2022/03/23 12:36:59;;;;;;;11.50;10.37;;;27.50;31.50;;;;;;5080648;28;20201;-82
2022/03/23 12:39:47;;;;;;;11.00;10.05;;;27.50;32.00;;;;;;5069975;28;20185;-82
2022/03/23 12:42:32;;;;;;;10.35;9.20;;;27.30;30.60;;;;;;5092716;28;20212;-81
2022/03/23 12:45:21;;;;;;;9.52;8.68;;;26.10;31.70;;;;;;5088995;28;20248;-83
2022/03/23 12:57:49;;;;;;;9.77;8.88;;;26.50;32.40;;;;;;5086278;28;20196;-83
2022/03/23 13:00:37;;;;;;;10.43;9.43;;;25.00;35.00;;;;;;5090572;28;20189;-83
2022/03/23 13:03:54;;;;;;;9.63;8.80;;;25.90;33.10;;;;;;5086856;28;20284;-82
2022/03/23 13:06:39;;;;;;;8.97;8.17;;;23.70;30.60;;;;;;5074726;28;20257;-82
2022/03/23 13:09:25;;;;;;;9.57;8.77;;;24.30;32.80;;;;;;5078542;28;20506;-81
2022/03/23 13:12:11;;;;;;;9.07;8.17;;;26.60;32.50;;;;;;5097310;28;20610;-79
2022/03/23 13:14:55;;;;;;;10.70;9.70;;;28.40;34.20;;;;;;5093929;28;20533;-81
2022/03/23 13:17:44;;;;;;;11.15;10.05;;;29.30;29.70;;;;;;5090178;28;20558;-81
2022/03/23 13:20:31;;;;;;;10.23;9.38;;;29.10;29.40;;;;;;5093835;28;20184;-81
2022/03/23 13:23:17;;;;;;;10.77;9.88;;;29.30;29.00;;;;;;5062393;28;20259;-83
2022/03/23 13:26:08;;;;;;;10.38;9.45;;;29.70;29.90;;;;;;5095152;28;20247;-82
2022/03/23 13:28:58;;;;;;;10.98;9.77;;;29.60;29.20;;;;;;5094692;28;20260;-81
2022/03/23 13:31:43;;;;;;;10.23;9.43;;;29.20;29.30;;;;;;5108446;28;20185;-82
2022/03/23 13:34:28;;;;;;;11.02;9.93;;;27.80;30.20;;;;;;5097768;28;20201;-82
2022/03/23 13:37:12;;;;;;;10.32;9.40;;;28.30;28.80;;;;;;5093083;28;20232;-83
2022/03/23 13:39:57;;;;;;;11.40;10.32;;;26.70;29.40;;;;;;5095118;28;20185;-81
2022/03/23 13:45:53;;;;;;;12.43;10.18;;;27.60;32.50;;;;;;5089277;28;20251;-83
2022/03/23 13:48:39;;;;;;;10.60;9.73;;;29.00;28.40;;;;;;5096902;28;20699;-83
2022/03/23 13:51:23;;;;;;;10.77;9.93;;;28.30;29.00;;;;;;5077417;28;20293;-83
2022/03/23 13:54:11;;;;;;;10.50;9.35;;;28.40;28.80;;;;;;5092488;28;20227;-83
2022/03/23 13:56:56;;;;;;;10.88;9.95;;;28.50;28.10;;;;;;5092451;28;20173;-81
2022/03/23 13:59:40;;;;;;;10.25;9.25;;;26.20;27.60;;;;;;5099434;28;20212;-83
2022/03/23 14:02:26;;;;;;;11.60;9.38;;;25.80;31.20;;;;;;5099583;28;20211;-81
2022/03/23 14:05:10;;;;;;;10.68;9.63;;;26.70;30.40;;;;;;5085911;28;20244;-81
2022/03/23 14:07:58;;;;;;;10.68;9.63;;;26.80;28.00;;;;;;5084242;28;20194;-81
2022/03/23 14:10:45;;;;;;;10.63;9.73;;;25.90;29.60;;;;;;5090475;28;20289;-80
2022/03/23 14:13:29;;;;;;;9.50;8.70;;;24.00;30.90;;;;;;5087797;28;20220;-83
2022/03/23 14:16:18;;;;;;;10.27;9.20;;;22.60;29.60;;;;;;5081706;28;20630;-80
2022/03/23 14:19:03;;;;;;;10.13;9.13;;;22.20;30.70;;;;;;5081515;28;20431;-84
2022/03/23 14:21:48;;;;;;;8.90;8.20;;;22.60;32.80;;;;;;5076526;28;20480;-83
2022/03/23 14:24:34;;;;;;;11.00;10.00;;;23.10;33.30;;;;;;5066394;28;20447;-81
2022/03/23 14:27:23;;;;;;;10.33;9.37;;;24.10;32.60;;;;;;5070203;28;20451;-83
2022/03/23 14:30:10;;;;;;;9.60;8.70;;;24.80;33.20;;;;;;5090327;28;20431;-84
2022/03/23 14:32:57;;;;;;;9.43;8.63;;;25.20;31.70;;;;;;5090218;28;20457;-81
2022/03/23 14:35:43;;;;;;;15.60;10.50;;;25.10;32.80;;;;;;5103881;28;20475;-83
2022/03/23 14:38:31;;;;;;;10.40;9.43;;;25.20;31.30;;;;;;5078879;28;20890;-82
2022/03/23 14:41:19;;;;;;;9.63;8.83;;;24.90;32.40;;;;;;5077311;28;20201;-81
2022/03/23 14:44:03;;;;;;;9.90;9.00;;;25.90;30.90;;;;;;5080645;28;20412;-83
2022/03/23 14:46:48;;;;;;;9.18;8.38;;;27.40;29.20;;;;;;5075529;28;20300;-81
2022/03/23 14:49:36;;;;;;;9.70;8.80;;;27.00;28.10;;;;;;5089469;28;20623;-83
2022/03/23 14:52:20;;;;;;;9.60;8.82;;;26.50;29.40;;;;;;5083686;28;20237;-84
2022/03/23 14:55:06;;;;;;;9.93;9.07;;;27.80;28.90;;;;;;5072978;28;20212;-82
2022/03/23 14:57:51;;;;;;;9.95;9.07;;;27.20;29.20;;;;;;5077857;28;20676;-82
2022/03/23 15:00:37;;;;;;;9.88;8.98;;;27.20;27.10;;;;;;5093163;28;20185;-84
2022/03/23 15:03:34;;;;;;;9.63;8.73;;;26.90;30.10;;;;;;5087955;28;20223;-79